createdAt,value
2022-12-12T20:29:45.370Z,-3.51
2022-12-12T20:30:48.587Z,-3.51
2022-12-12T20:31:45.936Z,-3.55
2022-12-12T20:32:46.262Z,-3.55
2022-12-12T20:33:46.612Z,-3.51
2022-12-12T20:34:46.891Z,-3.49
2022-12-12T20:35:47.254Z,-3.56
2022-12-12T20:36:47.717Z,-3.61
2022-12-12T20:37:47.859Z,-3.55
2022-12-12T20:38:48.157Z,-3.63
2022-12-12T20:39:48.479Z,-3.52
2022-12-12T20:40:48.777Z,-3.63
2022-12-12T20:41:49.144Z,-3.64
2022-12-12T20:42:55.955Z,-3.66
2022-12-12T20:43:49.687Z,-3.66
2022-12-12T20:44:50.043Z,-3.61
2022-12-12T20:45:50.397Z,-3.63
2022-12-12T20:46:50.687Z,-3.64
2022-12-12T20:47:50.966Z,-3.69
2022-12-12T20:48:51.518Z,-3.69
2022-12-12T20:49:51.616Z,-3.66
2022-12-12T20:50:51.940Z,-3.69
2022-12-12T20:51:55.819Z,-3.61
2022-12-12T20:52:52.590Z,-3.63
2022-12-12T20:53:52.921Z,-3.64
2022-12-12T20:54:53.253Z,-3.69
2022-12-12T20:55:53.576Z,-3.61
2022-12-12T20:56:53.997Z,-3.64
2022-12-12T20:57:54.241Z,-3.64
2022-12-12T20:58:54.864Z,-3.66
2022-12-12T20:59:55.019Z,-3.69
2022-12-12T21:00:55.218Z,-3.66
2022-12-12T21:01:55.781Z,-3.69
2022-12-12T21:02:55.962Z,-3.72
2022-12-12T21:03:56.355Z,-3.66
2022-12-12T21:04:56.519Z,-3.75
2022-12-12T21:05:56.836Z,-3.72
2022-12-12T21:06:57.242Z,-3.67
2022-12-12T21:07:57.703Z,-3.75
2022-12-12T21:08:57.880Z,-3.66
2022-12-12T21:09:58.318Z,-3.69
2022-12-12T21:10:58.610Z,-3.75
2022-12-12T21:11:58.974Z,-3.70
2022-12-12T21:12:59.158Z,-3.78
2022-12-12T21:13:59.498Z,-3.75
2022-12-12T21:15:02.997Z,-3.70
2022-12-12T21:16:00.303Z,-3.78
2022-12-12T21:17:00.423Z,-3.70
2022-12-12T21:18:00.777Z,-3.83
2022-12-12T21:19:01.068Z,-3.72
2022-12-12T21:20:06.304Z,-3.70
2022-12-12T21:21:01.726Z,-3.75
2022-12-12T21:22:02.054Z,-3.83
2022-12-12T21:23:02.469Z,-3.75
2022-12-12T21:24:02.689Z,-3.83
2022-12-12T21:25:03.113Z,-3.74
2022-12-12T21:26:03.320Z,-3.83
2022-12-12T21:27:03.862Z,-3.77
2022-12-12T21:28:04.103Z,-3.75
2022-12-12T21:29:04.519Z,-3.85
2022-12-12T21:30:04.813Z,-3.78
2022-12-12T21:31:05.108Z,-3.86
2022-12-12T21:32:05.287Z,-3.82
2022-12-12T21:33:05.611Z,-3.88
2022-12-12T21:34:06.052Z,-3.86
2022-12-12T21:35:06.282Z,-3.96
2022-12-12T21:36:06.621Z,-3.83
2022-12-12T21:37:06.955Z,-3.95
2022-12-12T21:38:07.291Z,-3.89
2022-12-12T21:39:07.657Z,-3.96
2022-12-12T21:40:08.093Z,-3.92
2022-12-12T21:41:08.316Z,-3.88
2022-12-12T21:42:08.646Z,-3.91
2022-12-12T21:43:08.997Z,-3.95
2022-12-12T21:44:09.384Z,-3.92
2022-12-12T21:45:09.693Z,-3.95
2022-12-12T21:46:10.394Z,-4.03
2022-12-12T21:47:10.353Z,-4.02
2022-12-12T21:48:10.693Z,-3.96
2022-12-12T21:49:11.058Z,-4.03
2022-12-12T21:50:11.475Z,-3.96
2022-12-12T21:51:12.048Z,-3.88
2022-12-12T21:52:12.331Z,-3.92
2022-12-12T21:53:12.495Z,-3.92
2022-12-12T21:54:12.867Z,-4.04
2022-12-12T21:55:13.572Z,-3.93
2022-12-12T21:56:13.624Z,-3.98
2022-12-12T21:57:13.972Z,-4.07
2022-12-12T21:58:14.309Z,-4.07
2022-12-12T21:59:14.676Z,-4.10
2022-12-12T22:00:15.170Z,-4.02
2022-12-12T22:01:15.587Z,-4.07
2022-12-12T22:02:15.788Z,-4.04
2022-12-12T22:03:16.362Z,-3.98
2022-12-12T22:04:16.920Z,-3.98
2022-12-12T22:05:17.172Z,-3.95
2022-12-12T22:06:17.279Z,-3.93
2022-12-12T22:07:17.669Z,-3.89
2022-12-12T22:08:18.128Z,-3.93
2022-12-12T22:09:18.473Z,-3.93
2022-12-12T22:10:18.797Z,-3.99
2022-12-12T22:11:23.827Z,-3.99
2022-12-12T22:12:19.543Z,-3.93
2022-12-12T22:13:20.056Z,-4.06
2022-12-12T22:14:20.355Z,-3.92
2022-12-12T22:15:20.702Z,-4.03
2022-12-12T22:16:21.128Z,-4.03
2022-12-12T22:17:21.440Z,-3.91
2022-12-12T22:18:21.815Z,-4.07
2022-12-12T22:19:22.429Z,-4.03
2022-12-12T22:20:22.581Z,-3.96
2022-12-12T22:21:22.982Z,-4.03
2022-12-12T22:22:23.385Z,-4.06
2022-12-12T22:23:23.891Z,-4.06
2022-12-12T22:24:24.118Z,-4.06
2022-12-12T22:25:24.564Z,-4.09
2022-12-12T22:26:24.809Z,-4.09
2022-12-12T22:27:25.231Z,-4.03
2022-12-12T22:28:25.552Z,-4.02
2022-12-12T22:29:25.920Z,-4.10
2022-12-12T22:30:26.296Z,-4.12
2022-12-12T22:31:26.731Z,-4.14
2022-12-12T22:32:27.228Z,-4.10
2022-12-12T22:33:27.487Z,-4.07
2022-12-12T22:34:27.981Z,-4.04
2022-12-12T22:35:28.234Z,-4.07
2022-12-12T22:36:28.821Z,-4.14
2022-12-12T22:37:29.025Z,-3.98
2022-12-12T22:38:29.755Z,-4.04
2022-12-12T22:39:29.576Z,-4.04
2022-12-12T22:40:29.948Z,-4.12
2022-12-12T22:41:30.388Z,-4.09
2022-12-12T22:42:30.698Z,-4.06
2022-12-12T22:43:31.076Z,-4.10
2022-12-12T22:44:31.435Z,-4.04
2022-12-12T22:45:31.850Z,-4.14
2022-12-12T22:46:32.225Z,-4.09
2022-12-12T22:47:32.886Z,-4.13
2022-12-12T22:48:32.899Z,-3.99
2022-12-12T22:49:33.251Z,-4.10
2022-12-12T22:50:33.620Z,-4.09
2022-12-12T22:51:34.009Z,-4.04
2022-12-12T22:52:34.536Z,-4.06
2022-12-12T22:53:39.462Z,-4.17
2022-12-12T22:54:35.224Z,-4.04
2022-12-12T22:55:35.474Z,-4.07
2022-12-12T22:56:35.855Z,-4.10
2022-12-12T22:57:36.501Z,-4.10
2022-12-12T22:58:36.585Z,-4.10
2022-12-12T22:59:36.963Z,-4.12
2022-12-12T23:00:37.355Z,-4.10
2022-12-12T23:01:37.704Z,-4.10
2022-12-12T23:02:38.120Z,-4.04
2022-12-12T23:03:38.453Z,-4.04
2022-12-12T23:04:38.912Z,-4.10
2022-12-12T23:05:39.372Z,-4.06
2022-12-12T23:06:39.566Z,-4.07
2022-12-12T23:07:39.951Z,-4.09
2022-12-12T23:08:40.289Z,-4.06
2022-12-12T23:09:40.648Z,-4.06
2022-12-12T23:10:40.999Z,-4.17
2022-12-12T23:11:41.352Z,-4.09
2022-12-12T23:12:41.754Z,-4.12
2022-12-12T23:13:42.069Z,-4.17
2022-12-12T23:14:42.422Z,-4.12
2022-12-12T23:15:42.808Z,-4.13
2022-12-12T23:16:43.308Z,-4.13
2022-12-12T23:17:43.707Z,-4.12
2022-12-12T23:18:43.908Z,-4.07
2022-12-12T23:19:44.237Z,-4.09
2022-12-12T23:20:44.627Z,-4.07
2022-12-12T23:21:44.958Z,-4.10
2022-12-12T23:22:45.337Z,-3.99
2022-12-12T23:23:45.702Z,-3.98
2022-12-12T23:24:46.112Z,-4.06
2022-12-12T23:25:46.418Z,-4.04
2022-12-12T23:26:46.776Z,-3.98
2022-12-12T23:27:47.306Z,-3.91
2022-12-12T23:28:47.526Z,-3.92
2022-12-12T23:29:47.862Z,-3.92
2022-12-12T23:30:48.223Z,-3.82
2022-12-12T23:31:48.654Z,-3.78
2022-12-12T23:32:48.935Z,-3.75
2022-12-12T23:33:49.327Z,-3.67
2022-12-12T23:34:49.685Z,-3.61
2022-12-12T23:35:50.055Z,-3.63
2022-12-12T23:36:50.452Z,-3.63
2022-12-12T23:37:50.777Z,-3.49
2022-12-12T23:38:51.163Z,-3.54
2022-12-12T23:39:51.524Z,-3.49
2022-12-12T23:40:51.908Z,-3.49
2022-12-12T23:41:52.487Z,-3.41
2022-12-12T23:42:52.655Z,-3.44
2022-12-12T23:43:53.032Z,-3.30
2022-12-12T23:44:53.411Z,-3.30
2022-12-12T23:45:53.900Z,-3.31
2022-12-12T23:46:54.251Z,-3.30
2022-12-12T23:47:54.530Z,-3.31
2022-12-12T23:48:54.895Z,-3.30
2022-12-12T23:49:55.268Z,-3.25
2022-12-12T23:50:55.649Z,-3.19
2022-12-12T23:51:56.061Z,-3.12
2022-12-12T23:52:56.385Z,-3.13
2022-12-12T23:53:56.744Z,-3.10
2022-12-12T23:54:57.105Z,-3.09
2022-12-12T23:55:57.473Z,-3.15
2022-12-12T23:56:57.869Z,-3.06
2022-12-12T23:57:58.216Z,-2.97
2022-12-12T23:58:58.594Z,-2.99
2022-12-12T23:59:58.965Z,-3.04
